Aviation Digital Data Service (ADDS)

Output produced by TAFs form (0240 UTC 22 July 2017)
found at http://www.aviationweather.gov/adds/tafs/
 
KBOS 212323Z 2200/2306 27010KT P6SM FEW045 
     FM220400 30006KT P6SM BKN250 
     FM221500 00000KT P6SM SCT140 
     FM230200 04004KT P6SM BKN100
       
KLGA 220225Z 2202/2224 26012KT P6SM FEW060 BKN250 
     FM220700 35005KT P6SM SCT060 
     FM221200 05005KT P6SM FEW060 
     FM221800 15007KT P6SM OVC250
       
KEWR 220225Z 2202/2306 25006KT P6SM BKN250 
     FM220700 34004KT P6SM SCT060 
     FM221200 VRB04KT P6SM FEW060 
     FM222000 14006KT P6SM SCT050 BKN200
       
KJFK 220225Z 2202/2306 19008KT P6SM FEW060 BKN260 
     FM220700 35005KT P6SM SCT060 
     FM221400 10006KT P6SM FEW060 
     FM221800 19008KT P6SM SCT050 BKN200 
     FM222300 17006KT P6SM SCT050 OVC120
       
KPHL 212323Z 2200/2306 25005KT P6SM SCT250 
     FM221500 VRB05KT P6SM SCT200 
     FM222000 23007KT P6SM BKN050 
     PROB30 2222/2224 4SM -TSRA OVC025CB 
     FM230000 VRB04KT P6SM OVC050 
     PROB30 2300/2302 4SM -TSRA OVC025CB
       
KIAD 212333Z 2200/2306 VRB04KT P6SM SCT070 
     FM221100 35004KT P6SM BKN050 
     FM222000 24006KT P6SM BKN050 
     FM230000 23005KT P6SM -SHRA VCTS BKN070CB
       
KBWI 212333Z 2200/2306 16004KT P6SM SCT060 
     FM220200 VRB03KT P6SM BKN150 
     FM221100 35004KT P6SM BKN050 
     FM222000 24006KT P6SM BKN050 
     FM230000 22005KT P6SM -SHRA VCTS BKN050CB
       
KDCA 212333Z 2200/2224 19005KT P6SM BKN050 
     FM221100 35004KT P6SM BKN050 
     FM221700 24006KT P6SM BKN110
       
KCLT 220238Z 2203/2224 20004KT P6SM SCT250 
     FM221700 22008KT P6SM FEW060
       
KATL 220209Z 2202/2306 15006KT P6SM SCT060 BKN250 
     FM220600 22003KT P6SM FEW100 SCT250 
     FM221400 25005KT P6SM FEW030 SCT250 
     FM221600 23008KT P6SM SCT040 
     FM221900 23009KT P6SM VCSH SCT050 
     FM230100 23004KT P6SM FEW060 SCT250
       
KMCO 212332Z 2200/2224 23003KT P6SM SCT100 BKN200 
     FM221400 21004KT P6SM SCT025 
     FM221800 21006KT P6SM VCTS SCT035CB BKN100
       
KTPA 212337Z 2200/2224 VRB03KT P6SM SCT050 BKN250 
     FM221500 19004KT P6SM VCTS SCT025CB BKN250 
     FM222000 25007KT P6SM VCTS OVC050CB
       
KFLL 212337Z 2200/2224 VRB05KT P6SM SCT030 SCT250 
     FM221500 14010KT P6SM VCTS SCT035CB
       
KMIA 212337Z 2200/2224 VRB03KT P6SM SCT030 SCT250 
     FM221500 13008KT P6SM VCTS SCT035CB
       
KDTW 212320Z 2200/2306 16006KT P6SM SCT150 BKN250 
     FM220900 12004KT P6SM -SHRA BKN045 OVC100 
     PROB30 2209/2213 2SM +TSRA BKN022CB OVC040 
     FM221400 17008KT 6SM BR SCT022 BKN040 OVC150 
     FM221900 21008KT P6SM BKN045
       
KMSP 212320Z 2200/2306 17009KT P6SM FEW025 SCT150 
     FM220600 14010KT 6SM BR SCT030 SCT120 
     FM220900 13005KT 4SM BR VCSH SCT010 BKN120 
     FM221300 VRB05KT P6SM SCT015 BKN040 
     FM221700 28007KT P6SM SCT040
       
KORD 220054Z 2201/2306 10008KT P6SM SCT050 BKN120 
     FM220130 14006KT 6SM -SHRA VCTS SCT040 BKN100CB 
     TEMPO 2202/2203 1SM TSRA BKN040CB 
     FM220300 14006KT 4SM -TSRA SCT015 BKN035CB OVC050 
     TEMPO 2203/2204 28015G25KT 1SM +TSRA 
     FM220500 18008KT 5SM -SHRA VCTS BKN035 BKN080CB 
     TEMPO 2205/2209 2SM TSRA SCT015 BKN025CB 
     FM221100 20010KT P6SM SCT035 BKN050 
     FM221800 01008KT P6SM SCT040
       
KMDW 220132Z 2202/2224 10010KT 1SM -TSRA SCT015 BKN035CB BKN100 
     FM220215 13010KT 4SM -TSRA SCT015 BKN035CB OVC060 
     TEMPO 2203/2204 28015G25KT 1SM +TSRA 
     FM220500 18008KT 5SM -SHRA VCTS BKN035 BKN080CB 
     TEMPO 2205/2209 2SM TSRA SCT015 BKN025CB 
     FM221100 21010KT P6SM SCT035 BKN050 
     FM221800 01008KT P6SM BKN050
       
KMEM 212328Z 2200/2224 20004KT P6SM FEW250 
     FM221600 23007KT P6SM FEW040 
     FM221900 23008KT P6SM FEW050
       
KDFW 212320Z 2200/2306 17009KT P6SM FEW080
       
KIAH 212334Z 2200/2306 06011KT 4SM TSRA BKN040CB BKN250 
     FM220100 16005KT P6SM BKN250 
     FM221600 18004KT P6SM VCTS SCT045CB SCT250 
     FM222300 16007KT P6SM VCSH FEW040 BKN250
       
KDEN 220154Z 2202/2306 34018G25KT P6SM -RA FEW070 SCT080 OVC100 
     FM220300 31012KT P6SM VCSH SCT080 BKN120 
     FM220600 20006KT P6SM FEW090 BKN120 
     FM221500 25005KT P6SM FEW100 SCT200 
     FM221800 04008KT P6SM SCT100 BKN120 
     FM230000 09007KT P6SM SCT100 BKN200
       
KSLC 212320Z 2200/2306 35010KT P6SM FEW090 FEW250 
     FM220400 16006KT P6SM SKC 
     FM221800 33009KT P6SM FEW120 
     FM230400 16006KT P6SM SKC
       
KSEA 212337Z 2200/2306 26006KT P6SM FEW040 SCT090 BKN150 
     FM220200 35005KT P6SM SCT080 BKN150 
     FM220900 15004KT P6SM BKN050 OVC080 
     FM221400 18005KT P6SM SCT030 BKN040 OVC060 
     FM222100 23006KT P6SM SCT040 BKN060 
     FM230100 35006KT P6SM SCT035 BKN045
       
KSFO 212333Z 2200/2306 29021G28KT P6SM SKC 
     FM220400 28015KT P6SM SKC 
     FM220700 29008KT P6SM FEW012 
     FM221200 28005KT P6SM SCT010 
     TEMPO 2213/2216 BKN010 
     FM221700 29006KT P6SM FEW012 
     FM222000 29015G22KT P6SM SKC 
     FM230400 29013KT P6SM FEW010
       
KLAX 212335Z 2200/2306 25014KT P6SM FEW012 
     FM220300 25007KT P6SM SKC 
     FM220900 VRB03KT P6SM OVC009 
     FM221200 VRB03KT 6SM BR OVC012 
     FM221700 24006KT 6SM HZ SCT015 
     FM221900 26011KT P6SM SKC 
     FM230400 26007KT P6SM BKN009
       
KSAN 220126Z 2201/2306 32006KT P6SM FEW015 
     FM220500 VRB04KT P6SM BKN013 
     FM221700 VRB04KT P6SM SCT015 
     FM222000 27008KT P6SM SKC 
     FM230200 VRB04KT P6SM FEW015 
     FM230500 VRB04KT P6SM BKN013
       
KLAS 220236Z 2203/2306 21008KT P6SM SCT150 SCT250 
     FM221700 05006KT P6SM SCT150 SCT250 
     FM222100 11007KT P6SM SCT150 SCT250 
     FM230200 21008KT P6SM SCT150 SCT250
       
KPHX 220215Z 2202/2306 06012KT P6SM VCTS SCT090CB BKN150 
     TEMPO 2202/2204 VRB15G25KT TSRA BKN080CB BKN150 
     FM220400 06012KT P6SM VCSH SCT080 BKN130 BKN200 
     FM220600 12008KT P6SM VCSH SCT080 BKN140 BKN250 
     FM220900 16007KT P6SM SCT120 BKN250 
     FM222000 26012KT P6SM FEW080 SCT130 SCT250
       
KSDF 212320Z 2200/2306 24006KT 6SM HZ FEW050 SCT250 
     FM220300 19004KT 6SM HZ SCT250 
     TEMPO 2210/2214 5SM HZ 
     FM221500 23009KT 6SM HZ FEW045 SCT250
       
KIND 220223Z 2202/2306 13007KT P6SM VCTS SCT040CB BKN180 
     FM220600 17005KT P6SM VCTS BKN200CB 
     FM221200 22008KT P6SM BKN200 
     FM221700 24012KT P6SM SCT200 
     FM230000 24011KT P6SM SHRA VCTS SCT050CB BKN090